sensor_id;sensor_type;location;lat;lon;timestamp;pressure;altitude;pressure_sealevel;temperature;humidity
4410;BME280;2218;51.408;7.208;2022-10-19T00:01:48;101011.69;;;20.27;52.85
4410;BME280;2218;51.408;7.208;2022-10-19T00:04:14;101005.56;;;20.26;52.75
4410;BME280;2218;51.408;7.208;2022-10-19T00:06:44;101005.56;;;20.26;52.78
4410;BME280;2218;51.408;7.208;2022-10-19T00:09:16;101004.72;;;20.26;52.94
4410;BME280;2218;51.408;7.208;2022-10-19T00:11:46;101004.81;;;20.24;52.75
4410;BME280;2218;51.408;7.208;2022-10-19T00:14:16;100997.72;;;20.25;52.93
4410;BME280;2218;51.408;7.208;2022-10-19T00:16:45;101003.00;;;20.25;52.66
4410;BME280;2218;51.408;7.208;2022-10-19T00:19:16;100999.53;;;20.24;52.73
4410;BME280;2218;51.408;7.208;2022-10-19T00:21:45;101002.22;;;20.23;52.58
4410;BME280;2218;51.408;7.208;2022-10-19T00:24:12;100997.78;;;20.23;52.56
4410;BME280;2218;51.408;7.208;2022-10-19T00:26:39;101000.44;;;20.23;52.94
4410;BME280;2218;51.408;7.208;2022-10-19T00:29:07;101004.88;;;20.23;52.17
4410;BME280;2218;51.408;7.208;2022-10-19T00:31:34;101001.38;;;20.22;52.53
4410;BME280;2218;51.408;7.208;2022-10-19T00:34:01;101004.00;;;20.22;52.52
4410;BME280;2218;51.408;7.208;2022-10-19T00:36:31;101000.44;;;20.23;52.22
4410;BME280;2218;51.408;7.208;2022-10-19T00:39:01;100996.19;;;20.21;52.57
4410;BME280;2218;51.408;7.208;2022-10-19T00:41:32;100998.72;;;20.22;52.54
4410;BME280;2218;51.408;7.208;2022-10-19T00:44:03;100995.34;;;20.20;52.16
4410;BME280;2218;51.408;7.208;2022-10-19T00:46:34;100988.25;;;20.21;52.24
4410;BME280;2218;51.408;7.208;2022-10-19T00:49:05;100995.34;;;20.20;52.25
4410;BME280;2218;51.408;7.208;2022-10-19T00:51:36;101003.25;;;20.20;52.23
4410;BME280;2218;51.408;7.208;2022-10-19T00:54:08;101006.84;;;20.19;52.31
4410;BME280;2218;51.408;7.208;2022-10-19T00:56:39;101004.19;;;20.19;52.23
4410;BME280;2218;51.408;7.208;2022-10-19T00:59:08;101005.94;;;20.19;52.15
4410;BME280;2218;51.408;7.208;2022-10-19T01:01:36;101005.09;;;20.18;52.13
4410;BME280;2218;51.408;7.208;2022-10-19T01:04:04;100999.81;;;20.18;51.96
4410;BME280;2218;51.408;7.208;2022-10-19T01:06:32;100992.84;;;20.17;51.90
4410;BME280;2218;51.408;7.208;2022-10-19T01:08:59;100996.44;;;20.16;51.90
4410;BME280;2218;51.408;7.208;2022-10-19T01:11:41;100999.06;;;20.16;52.14
4410;BME280;2218;51.408;7.208;2022-10-19T01:14:27;100998.22;;;20.16;51.78
4410;BME280;2218;51.408;7.208;2022-10-19T01:17:10;100998.22;;;20.16;51.54
4410;BME280;2218;51.408;7.208;2022-10-19T01:20:28;100992.09;;;20.15;51.90
4410;BME280;2218;51.408;7.208;2022-10-19T01:23:50;100997.38;;;20.15;51.90
4410;BME280;2218;51.408;7.208;2022-10-19T01:27:18;100992.94;;;20.16;51.92
4410;BME280;2218;51.408;7.208;2022-10-19T01:29:59;100984.22;;;20.13;51.56
4410;BME280;2218;51.408;7.208;2022-10-19T01:32:39;100990.38;;;20.14;51.83
4410;BME280;2218;51.408;7.208;2022-10-19T01:35:14;100976.41;;;20.12;51.66
4410;BME280;2218;51.408;7.208;2022-10-19T01:37:49;100981.69;;;20.12;51.54
4410;BME280;2218;51.408;7.208;2022-10-19T01:40:28;100987.81;;;20.12;51.60
4410;BME280;2218;51.408;7.208;2022-10-19T01:43:01;100981.69;;;20.12;51.59
4410;BME280;2218;51.408;7.208;2022-10-19T01:45:37;100968.47;;;20.12;51.63
4410;BME280;2218;51.408;7.208;2022-10-19T01:48:12;100976.41;;;20.12;51.57
4410;BME280;2218;51.408;7.208;2022-10-19T01:50:46;100971.13;;;20.12;51.28
4410;BME280;2218;51.408;7.208;2022-10-19T01:53:18;100965.84;;;20.12;51.42
4410;BME280;2218;51.408;7.208;2022-10-19T01:55:50;100964.16;;;20.11;51.09
4410;BME280;2218;51.408;7.208;2022-10-19T01:58:24;100957.16;;;20.10;51.36
4410;BME280;2218;51.408;7.208;2022-10-19T02:00:57;100962.44;;;20.10;50.92
4410;BME280;2218;51.408;7.208;2022-10-19T02:03:27;100959.00;;;20.08;51.18
4410;BME280;2218;51.408;7.208;2022-10-19T02:05:55;100961.66;;;20.08;51.15
4410;BME280;2218;51.408;7.208;2022-10-19T02:08:27;100961.66;;;20.08;50.93
4410;BME280;2218;51.408;7.208;2022-10-19T02:10:57;100961.66;;;20.08;51.23
4410;BME280;2218;51.408;7.208;2022-10-19T02:13:28;100965.22;;;20.07;50.91
4410;BME280;2218;51.408;7.208;2022-10-19T02:16:00;100962.59;;;20.07;50.84
4410;BME280;2218;51.408;7.208;2022-10-19T02:18:34;100958.25;;;20.06;50.86
4410;BME280;2218;51.408;7.208;2022-10-19T02:21:04;100957.41;;;20.05;51.11
4410;BME280;2218;51.408;7.208;2022-10-19T02:23:32;100962.69;;;20.05;50.72
4410;BME280;2218;51.408;7.208;2022-10-19T02:25:59;100954.75;;;20.05;50.74
4410;BME280;2218;51.408;7.208;2022-10-19T02:28:27;100952.97;;;20.06;50.81
4410;BME280;2218;51.408;7.208;2022-10-19T02:30:56;100953.97;;;20.03;50.78
4410;BME280;2218;51.408;7.208;2022-10-19T02:33:24;100953.13;;;20.03;50.86
4410;BME280;2218;51.408;7.208;2022-10-19T02:35:51;100953.06;;;20.04;50.88
4410;BME280;2218;51.408;7.208;2022-10-19T02:38:21;100949.56;;;20.04;50.69
4410;BME280;2218;51.408;7.208;2022-10-19T02:40:59;100944.34;;;20.02;50.66
4410;BME280;2218;51.408;7.208;2022-10-19T02:43:31;100952.19;;;20.04;50.58
4410;BME280;2218;51.408;7.208;2022-10-19T02:46:05;100944.34;;;20.02;50.36
4410;BME280;2218;51.408;7.208;2022-10-19T02:48:35;100947.84;;;20.03;50.11
4410;BME280;2218;51.408;7.208;2022-10-19T02:51:03;100954.06;;;20.02;50.39
4410;BME280;2218;51.408;7.208;2022-10-19T02:53:30;100954.06;;;20.02;50.16
4410;BME280;2218;51.408;7.208;2022-10-19T02:55:57;100943.50;;;20.02;50.22
4410;BME280;2218;51.408;7.208;2022-10-19T02:58:24;100950.66;;;20.00;50.17
4410;BME280;2218;51.408;7.208;2022-10-19T03:00:51;100942.75;;;20.00;50.14
4410;BME280;2218;51.408;7.208;2022-10-19T03:03:19;100940.97;;;20.00;50.15
4410;BME280;2218;51.408;7.208;2022-10-19T03:05:46;100942.75;;;20.00;50.04
4410;BME280;2218;51.408;7.208;2022-10-19T03:08:13;100940.13;;;20.00;50.26
4410;BME280;2218;51.408;7.208;2022-10-19T03:10:39;100942.81;;;19.98;50.09
4410;BME280;2218;51.408;7.208;2022-10-19T03:13:06;100941.97;;;19.98;49.49
4410;BME280;2218;51.408;7.208;2022-10-19T03:15:33;100937.53;;;19.98;50.03
4410;BME280;2218;51.408;7.208;2022-10-19T03:18:00;100941.19;;;19.96;49.82
4410;BME280;2218;51.408;7.208;2022-10-19T03:20:28;100943.00;;;19.95;49.90
4410;BME280;2218;51.408;7.208;2022-10-19T03:22:55;100937.72;;;19.95;49.97
4410;BME280;2218;51.408;7.208;2022-10-19T03:25:22;100935.06;;;19.95;49.75
4410;BME280;2218;51.408;7.208;2022-10-19T03:27:52;100928.94;;;19.95;49.84
4410;BME280;2218;51.408;7.208;2022-10-19T03:30:19;100931.59;;;19.95;49.99
4410;BME280;2218;51.408;7.208;2022-10-19T03:32:46;100934.22;;;19.95;49.79
4410;BME280;2218;51.408;7.208;2022-10-19T03:35:13;100932.50;;;19.94;49.86
4410;BME280;2218;51.408;7.208;2022-10-19T03:37:41;100934.22;;;19.95;49.68
4410;BME280;2218;51.408;7.208;2022-10-19T03:40:09;100933.44;;;19.93;49.93
4410;BME280;2218;51.408;7.208;2022-10-19T03:42:36;100941.44;;;19.91;49.66
4410;BME280;2218;51.408;7.208;2022-10-19T03:45:04;100929.19;;;19.90;49.91
4410;BME280;2218;51.408;7.208;2022-10-19T03:47:31;100931.75;;;19.92;49.73
4410;BME280;2218;51.408;7.208;2022-10-19T03:49:57;100930.88;;;19.91;49.77
4410;BME280;2218;51.408;7.208;2022-10-19T03:52:24;100930.03;;;19.91;49.71
4410;BME280;2218;51.408;7.208;2022-10-19T03:54:52;100936.25;;;19.90;49.92
4410;BME280;2218;51.408;7.208;2022-10-19T03:57:19;100938.91;;;19.90;49.80
4410;BME280;2218;51.408;7.208;2022-10-19T03:59:47;100935.47;;;19.87;49.89
4410;BME280;2218;51.408;7.208;2022-10-19T04:02:14;100970.56;;;19.90;49.51
4410;BME280;2218;51.408;7.208;2022-10-19T04:04:41;100969.72;;;19.89;49.43
4410;BME280;2218;51.408;7.208;2022-10-19T04:07:08;100970.56;;;19.90;49.29
4410;BME280;2218;51.408;7.208;2022-10-19T04:09:34;100973.19;;;19.90;49.31
4410;BME280;2218;51.408;7.208;2022-10-19T04:12:04;100974.97;;;19.89;49.27
4410;BME280;2218;51.408;7.208;2022-10-19T04:14:31;100980.16;;;19.91;49.27
4410;BME280;2218;51.408;7.208;2022-10-19T04:16:58;100968.75;;;19.90;49.41
4410;BME280;2218;51.408;7.208;2022-10-19T04:19:24;100973.09;;;19.91;49.37
4410;BME280;2218;51.408;7.208;2022-10-19T04:21:51;100972.25;;;19.91;49.51
4410;BME280;2218;51.408;7.208;2022-10-19T04:24:18;100969.63;;;19.91;49.68
4410;BME280;2218;51.408;7.208;2022-10-19T04:26:48;100966.97;;;19.91;49.54
4410;BME280;2218;51.408;7.208;2022-10-19T04:29:18;100972.25;;;19.91;49.73
4410;BME280;2218;51.408;7.208;2022-10-19T04:31:48;100966.97;;;19.91;49.46
4410;BME280;2218;51.408;7.208;2022-10-19T04:34:16;100960.00;;;19.90;49.68
4410;BME280;2218;51.408;7.208;2022-10-19T04:36:44;100962.63;;;19.90;49.71
4410;BME280;2218;51.408;7.208;2022-10-19T04:39:11;100960.00;;;19.90;49.69
4410;BME280;2218;51.408;7.208;2022-10-19T04:41:38;100960.00;;;19.90;49.77
4410;BME280;2218;51.408;7.208;2022-10-19T04:44:05;100964.47;;;19.87;49.73
4410;BME280;2218;51.408;7.208;2022-10-19T04:46:34;100945.16;;;19.87;49.80
4410;BME280;2218;51.408;7.208;2022-10-19T04:49:02;100951.47;;;19.84;49.88
4410;BME280;2218;51.408;7.208;2022-10-19T04:51:30;100946.19;;;19.84;50.02
4410;BME280;2218;51.408;7.208;2022-10-19T04:53:57;100944.47;;;19.83;50.05
4410;BME280;2218;51.408;7.208;2022-10-19T04:56:25;100937.50;;;19.82;49.89
4410;BME280;2218;51.408;7.208;2022-10-19T04:58:55;100946.34;;;19.81;49.85
4410;BME280;2218;51.408;7.208;2022-10-19T05:01:24;100943.72;;;19.81;49.96
4410;BME280;2218;51.408;7.208;2022-10-19T05:03:54;100944.47;;;19.83;50.06
4410;BME280;2218;51.408;7.208;2022-10-19T05:06:22;100937.50;;;19.82;50.06
4410;BME280;2218;51.408;7.208;2022-10-19T05:08:49;100934.00;;;19.82;49.97
4410;BME280;2218;51.408;7.208;2022-10-19T05:11:17;100930.50;;;19.81;49.76
4410;BME280;2218;51.408;7.208;2022-10-19T05:13:45;100923.53;;;19.80;49.81
4410;BME280;2218;51.408;7.208;2022-10-19T05:16:16;100924.41;;;19.81;50.00
4410;BME280;2218;51.408;7.208;2022-10-19T05:18:46;100920.91;;;19.80;50.00
4410;BME280;2218;51.408;7.208;2022-10-19T05:21:17;100916.56;;;19.79;49.74
4410;BME280;2218;51.408;7.208;2022-10-19T05:23:45;100921.84;;;19.79;49.92
4410;BME280;2218;51.408;7.208;2022-10-19T05:26:14;100912.19;;;19.78;49.78
4410;BME280;2218;51.408;7.208;2022-10-19T05:28:42;100916.56;;;19.79;49.86
4410;BME280;2218;51.408;7.208;2022-10-19T05:31:16;100924.47;;;19.79;49.91
4410;BME280;2218;51.408;7.208;2022-10-19T05:33:43;100924.53;;;19.78;49.64
4410;BME280;2218;51.408;7.208;2022-10-19T05:36:19;100922.75;;;19.78;49.91
4410;BME280;2218;51.408;7.208;2022-10-19T05:38:48;100920.28;;;19.75;49.67
4410;BME280;2218;51.408;7.208;2022-10-19T05:41:18;100912.28;;;19.77;49.84
4410;BME280;2218;51.408;7.208;2022-10-19T05:43:51;100914.09;;;19.76;49.60
4410;BME280;2218;51.408;7.208;2022-10-19T05:46:18;100904.38;;;19.77;49.54
4410;BME280;2218;51.408;7.208;2022-10-19T05:48:46;100901.81;;;19.75;49.51
4410;BME280;2218;51.408;7.208;2022-10-19T05:51:17;100886.94;;;19.74;49.64
4410;BME280;2218;51.408;7.208;2022-10-19T05:53:44;100888.09;;;19.69;49.99
4410;BME280;2218;51.408;7.208;2022-10-19T05:56:15;100897.03;;;19.66;50.21
4410;BME280;2218;51.408;7.208;2022-10-19T05:58:43;100891.84;;;19.65;50.26
4410;BME280;2218;51.408;7.208;2022-10-19T06:01:10;100899.81;;;19.63;50.49
4410;BME280;2218;51.408;7.208;2022-10-19T06:03:37;100898.13;;;19.62;50.47
4410;BME280;2218;51.408;7.208;2022-10-19T06:06:06;100905.09;;;19.63;50.53
4410;BME280;2218;51.408;7.208;2022-10-19T06:08:36;100904.63;;;19.72;50.40
4410;BME280;2218;51.408;7.208;2022-10-19T06:11:06;100906.06;;;19.78;50.36
4410;BME280;2218;51.408;7.208;2022-10-19T06:13:34;100904.13;;;19.81;50.09
4410;BME280;2218;51.408;7.208;2022-10-19T06:16:02;100911.91;;;19.84;50.10
4410;BME280;2218;51.408;7.208;2022-10-19T06:18:29;100904.84;;;19.85;50.07
4410;BME280;2218;51.408;7.208;2022-10-19T06:21:01;100905.69;;;19.85;50.27
4410;BME280;2218;51.408;7.208;2022-10-19T06:23:29;100907.38;;;19.86;50.03
4410;BME280;2218;51.408;7.208;2022-10-19T06:25:58;100908.22;;;19.87;50.06
4410;BME280;2218;51.408;7.208;2022-10-19T06:28:25;100910.78;;;19.88;50.01
4410;BME280;2218;51.408;7.208;2022-10-19T06:30:51;100910.72;;;19.90;50.00
4410;BME280;2218;51.408;7.208;2022-10-19T06:33:18;100908.94;;;19.91;50.07
4410;BME280;2218;51.408;7.208;2022-10-19T06:35:45;100902.63;;;19.93;49.66
4410;BME280;2218;51.408;7.208;2022-10-19T06:38:12;100907.84;;;19.95;49.82
4410;BME280;2218;51.408;7.208;2022-10-19T06:40:39;100906.06;;;19.95;49.74
4410;BME280;2218;51.408;7.208;2022-10-19T06:43:07;100909.34;;;19.99;49.55
4410;BME280;2218;51.408;7.208;2022-10-19T06:45:37;100904.03;;;20.00;49.45
4410;BME280;2218;51.408;7.208;2022-10-19T06:48:04;100916.13;;;20.04;49.48
4410;BME280;2218;51.408;7.208;2022-10-19T06:50:32;100909.81;;;20.07;49.47
4410;BME280;2218;51.408;7.208;2022-10-19T06:52:59;100918.19;;;20.15;49.03
4410;BME280;2218;51.408;7.208;2022-10-19T06:55:26;100925.00;;;20.19;49.15
4410;BME280;2218;51.408;7.208;2022-10-19T06:57:53;100915.81;;;20.26;48.63
4410;BME280;2218;51.408;7.208;2022-10-19T07:00:21;100914.53;;;20.33;48.40
4410;BME280;2218;51.408;7.208;2022-10-19T07:02:48;100908.47;;;20.31;48.85
4410;BME280;2218;51.408;7.208;2022-10-19T07:05:15;100908.63;;;20.28;48.82
4410;BME280;2218;51.408;7.208;2022-10-19T07:07:42;100904.25;;;20.29;48.76
4410;BME280;2218;51.408;7.208;2022-10-19T07:10:10;100909.34;;;20.32;48.45
4410;BME280;2218;51.408;7.208;2022-10-19T07:12:37;100918.88;;;20.34;48.99
4410;BME280;2218;51.408;7.208;2022-10-19T07:15:05;100919.81;;;20.33;48.78
4410;BME280;2218;51.408;7.208;2022-10-19T07:17:33;100912.56;;;20.37;49.00
4410;BME280;2218;51.408;7.208;2022-10-19T07:20:00;100910.72;;;20.39;48.52
4410;BME280;2218;51.408;7.208;2022-10-19T07:22:27;100907.78;;;20.44;48.63
4410;BME280;2218;51.408;7.208;2022-10-19T07:24:54;100907.72;;;20.45;48.85
4410;BME280;2218;51.408;7.208;2022-10-19T07:27:21;100908.53;;;20.47;48.70
4410;BME280;2218;51.408;7.208;2022-10-19T07:29:48;100913.47;;;20.53;49.14
4410;BME280;2218;51.408;7.208;2022-10-19T07:32:15;100904.63;;;20.54;48.89
4410;BME280;2218;51.408;7.208;2022-10-19T07:34:43;100908.09;;;20.55;49.15
4410;BME280;2218;51.408;7.208;2022-10-19T07:37:10;100916.88;;;20.55;48.99
4410;BME280;2218;51.408;7.208;2022-10-19T07:39:37;100914.25;;;20.55;49.28
4410;BME280;2218;51.408;7.208;2022-10-19T07:42:04;100910.66;;;20.56;49.22
4410;BME280;2218;51.408;7.208;2022-10-19T07:44:31;100911.50;;;20.57;49.29
4410;BME280;2218;51.408;7.208;2022-10-19T07:46:58;100914.16;;;20.57;49.01
4410;BME280;2218;51.408;7.208;2022-10-19T07:49:25;100914.94;;;20.59;49.13
4410;BME280;2218;51.408;7.208;2022-10-19T07:51:53;100919.28;;;20.60;49.21
4410;BME280;2218;51.408;7.208;2022-10-19T07:54:20;100920.13;;;20.60;49.38
4410;BME280;2218;51.408;7.208;2022-10-19T07:56:49;100936.66;;;20.64;49.00
4410;BME280;2218;51.408;7.208;2022-10-19T07:59:16;100936.56;;;20.65;48.92
4410;BME280;2218;51.408;7.208;2022-10-19T08:01:42;100934.59;;;20.69;48.82
4410;BME280;2218;51.408;7.208;2022-10-19T08:04:09;100931.03;;;20.70;49.09
4410;BME280;2218;51.408;7.208;2022-10-19T08:06:36;100938.75;;;20.73;48.89
4410;BME280;2218;51.408;7.208;2022-10-19T08:09:05;100938.59;;;20.76;48.68
4410;BME280;2218;51.408;7.208;2022-10-19T08:11:34;100944.72;;;20.77;48.52
4410;BME280;2218;51.408;7.208;2022-10-19T08:14:01;100946.38;;;20.79;48.50
4410;BME280;2218;51.408;7.208;2022-10-19T08:16:31;100942.78;;;20.80;48.19
4410;BME280;2218;51.408;7.208;2022-10-19T08:19:02;100940.88;;;20.82;48.23
4410;BME280;2218;51.408;7.208;2022-10-19T08:21:30;100943.63;;;20.81;48.18
4410;BME280;2218;51.408;7.208;2022-10-19T08:23:57;100940.13;;;20.80;48.56
4410;BME280;2218;51.408;7.208;2022-10-19T08:26:28;100939.34;;;20.78;48.19
4410;BME280;2218;51.408;7.208;2022-10-19T08:28:59;100947.13;;;20.81;48.07
4410;BME280;2218;51.408;7.208;2022-10-19T08:31:26;100951.28;;;20.85;47.50
4410;BME280;2218;51.408;7.208;2022-10-19T08:33:53;100949.25;;;20.90;47.65
4410;BME280;2218;51.408;7.208;2022-10-19T08:36:20;100940.97;;;20.97;48.21
4410;BME280;2218;51.408;7.208;2022-10-19T08:38:48;100946.69;;;21.05;48.10
4410;BME280;2218;51.408;7.208;2022-10-19T08:41:32;100944.78;;;21.07;47.92
4410;BME280;2218;51.408;7.208;2022-10-19T08:44:27;100950.66;;;21.12;47.93
4410;BME280;2218;51.408;7.208;2022-10-19T08:47:06;100947.84;;;21.15;48.08
4410;BME280;2218;51.408;7.208;2022-10-19T08:49:35;100951.25;;;21.17;48.22
4410;BME280;2218;51.408;7.208;2022-10-19T08:52:10;100946.91;;;21.16;48.11
4410;BME280;2218;51.408;7.208;2022-10-19T08:54:47;100947.84;;;21.15;48.04
4410;BME280;2218;51.408;7.208;2022-10-19T08:57:32;100936.50;;;21.13;48.18
4410;BME280;2218;51.408;7.208;2022-10-19T09:00:11;100932.84;;;21.15;48.14
4410;BME280;2218;51.408;7.208;2022-10-19T09:02:53;100924.16;;;21.13;48.74
4410;BME280;2218;51.408;7.208;2022-10-19T09:05:37;100925.84;;;21.14;48.53
4410;BME280;2218;51.408;7.208;2022-10-19T09:08:09;100925.91;;;21.13;48.46
4410;BME280;2218;51.408;7.208;2022-10-19T09:10:41;100928.50;;;21.14;48.27
4410;BME280;2218;51.408;7.208;2022-10-19T09:13:20;100918.78;;;21.15;48.02
4410;BME280;2218;51.408;7.208;2022-10-19T09:15:51;100920.56;;;21.14;48.26
4410;BME280;2218;51.408;7.208;2022-10-19T09:18:22;100914.22;;;21.17;48.16
4410;BME280;2218;51.408;7.208;2022-10-19T09:20:54;100904.59;;;21.16;48.00
4410;BME280;2218;51.408;7.208;2022-10-19T09:23:29;100908.94;;;21.17;48.28
4410;BME280;2218;51.408;7.208;2022-10-19T09:26:01;100910.63;;;21.18;48.30
4410;BME280;2218;51.408;7.208;2022-10-19T09:28:48;100894.78;;;21.18;47.81
4410;BME280;2218;51.408;7.208;2022-10-19T09:31:24;100898.31;;;21.19;48.52
4410;BME280;2218;51.408;7.208;2022-10-19T09:34:01;100892.91;;;21.20;48.20
4410;BME280;2218;51.408;7.208;2022-10-19T09:36:36;100892.91;;;21.20;47.88
4410;BME280;2218;51.408;7.208;2022-10-19T09:39:04;100885.94;;;21.19;48.08
4410;BME280;2218;51.408;7.208;2022-10-19T09:41:32;100888.56;;;21.19;47.67
4410;BME280;2218;51.408;7.208;2022-10-19T09:44:01;100889.41;;;21.20;47.26
4410;BME280;2218;51.408;7.208;2022-10-19T09:46:44;100877.03;;;21.20;47.28
4410;BME280;2218;51.408;7.208;2022-10-19T09:49:17;100876.00;;;21.23;47.31
4410;BME280;2218;51.408;7.208;2022-10-19T09:51:49;100876.84;;;21.23;46.93
4410;BME280;2218;51.408;7.208;2022-10-19T09:54:30;100875.16;;;21.22;47.31
4410;BME280;2218;51.408;7.208;2022-10-19T09:56:57;100877.72;;;21.24;47.40
4410;BME280;2218;51.408;7.208;2022-10-19T09:59:32;100875.16;;;21.22;48.24
4410;BME280;2218;51.408;7.208;2022-10-19T10:02:13;100866.38;;;21.22;47.54
4410;BME280;2218;51.408;7.208;2022-10-19T10:04:44;100863.81;;;21.20;47.92
4410;BME280;2218;51.408;7.208;2022-10-19T10:07:16;100866.47;;;21.20;48.04
4410;BME280;2218;51.408;7.208;2022-10-19T10:09:44;100856.75;;;21.21;47.38
4410;BME280;2218;51.408;7.208;2022-10-19T10:12:14;100859.28;;;21.22;46.32
4410;BME280;2218;51.408;7.208;2022-10-19T10:14:43;100852.13;;;21.24;46.26
4410;BME280;2218;51.408;7.208;2022-10-19T10:17:17;100849.56;;;21.23;47.30
4410;BME280;2218;51.408;7.208;2022-10-19T10:20:16;100852.13;;;21.24;47.04
4410;BME280;2218;51.408;7.208;2022-10-19T10:22:53;100848.66;;;21.24;47.12
4410;BME280;2218;51.408;7.208;2022-10-19T10:25:27;100852.13;;;21.24;46.39
4410;BME280;2218;51.408;7.208;2022-10-19T10:27:58;100854.78;;;21.24;46.83
4410;BME280;2218;51.408;7.208;2022-10-19T10:30:32;100837.13;;;21.25;47.52
4410;BME280;2218;51.408;7.208;2022-10-19T10:33:00;100837.03;;;21.26;46.73
4410;BME280;2218;51.408;7.208;2022-10-19T10:35:32;100834.38;;;21.26;46.92
4410;BME280;2218;51.408;7.208;2022-10-19T10:38:12;100841.47;;;21.26;47.37
4410;BME280;2218;51.408;7.208;2022-10-19T10:40:48;100838.72;;;21.27;47.30
4410;BME280;2218;51.408;7.208;2022-10-19T10:43:19;100835.13;;;21.28;47.36
4410;BME280;2218;51.408;7.208;2022-10-19T10:45:50;100832.47;;;21.28;47.32
4410;BME280;2218;51.408;7.208;2022-10-19T10:48:27;100824.66;;;21.27;47.43
4410;BME280;2218;51.408;7.208;2022-10-19T10:50:55;100826.44;;;21.26;47.38
4410;BME280;2218;51.408;7.208;2022-10-19T10:53:33;100825.44;;;21.29;47.27
4410;BME280;2218;51.408;7.208;2022-10-19T10:56:02;100826.28;;;21.29;47.02
4410;BME280;2218;51.408;7.208;2022-10-19T10:58:39;100823.63;;;21.29;47.19
4410;BME280;2218;51.408;7.208;2022-10-19T11:01:19;100822.72;;;21.30;46.86
4410;BME280;2218;51.408;7.208;2022-10-19T11:03:54;100814.78;;;21.30;47.24
4410;BME280;2218;51.408;7.208;2022-10-19T11:06:24;100814.78;;;21.30;47.02
4410;BME280;2218;51.408;7.208;2022-10-19T11:09:06;100808.53;;;21.31;47.33
4410;BME280;2218;51.408;7.208;2022-10-19T11:11:38;100807.59;;;21.32;46.96
4410;BME280;2218;51.408;7.208;2022-10-19T11:14:29;100802.31;;;21.32;47.02
4410;BME280;2218;51.408;7.208;2022-10-19T11:17:05;100808.44;;;21.33;46.70
4410;BME280;2218;51.408;7.208;2022-10-19T11:19:36;100801.28;;;21.35;47.14
4410;BME280;2218;51.408;7.208;2022-10-19T11:22:18;100791.72;;;21.32;47.31
4410;BME280;2218;51.408;7.208;2022-10-19T11:25:04;100797.00;;;21.32;47.47
4410;BME280;2218;51.408;7.208;2022-10-19T11:27:53;100785.59;;;21.32;47.76
4410;BME280;2218;51.408;7.208;2022-10-19T11:30:25;100790.88;;;21.32;47.49
4410;BME280;2218;51.408;7.208;2022-10-19T11:33:00;100782.00;;;21.33;47.51
4410;BME280;2218;51.408;7.208;2022-10-19T11:35:46;100780.97;;;21.35;47.87
4410;BME280;2218;51.408;7.208;2022-10-19T11:38:39;100770.41;;;21.35;47.40
4410;BME280;2218;51.408;7.208;2022-10-19T11:41:27;100774.00;;;21.34;47.81
4410;BME280;2218;51.408;7.208;2022-10-19T11:44:18;100772.09;;;21.36;47.62
4410;BME280;2218;51.408;7.208;2022-10-19T11:47:07;100762.34;;;21.37;47.46
4410;BME280;2218;51.408;7.208;2022-10-19T11:49:56;100748.19;;;21.38;47.66
4410;BME280;2218;51.408;7.208;2022-10-19T11:52:34;100741.88;;;21.40;48.19
4410;BME280;2218;51.408;7.208;2022-10-19T11:55:27;100744.50;;;21.40;47.72
4410;BME280;2218;51.408;7.208;2022-10-19T11:58:10;100729.59;;;21.39;48.11
4410;BME280;2218;51.408;7.208;2022-10-19T12:00:50;100724.31;;;21.39;47.68
4410;BME280;2218;51.408;7.208;2022-10-19T12:04:00;100713.72;;;21.39;48.04
4410;BME280;2218;51.408;7.208;2022-10-19T12:06:39;100718.19;;;21.39;47.86
4410;BME280;2218;51.408;7.208;2022-10-19T12:09:34;100718.19;;;21.39;48.06
4410;BME280;2218;51.408;7.208;2022-10-19T12:12:25;100712.03;;;21.38;47.83
4410;BME280;2218;51.408;7.208;2022-10-19T12:15:11;100706.75;;;21.38;47.93
4410;BME280;2218;51.408;7.208;2022-10-19T12:17:43;100715.53;;;21.39;48.00
4410;BME280;2218;51.408;7.208;2022-10-19T12:20:22;100712.97;;;21.37;48.01
4410;BME280;2218;51.408;7.208;2022-10-19T12:22:53;100702.38;;;21.37;48.17
4410;BME280;2218;51.408;7.208;2022-10-19T12:25:20;100709.41;;;21.38;48.09
4410;BME280;2218;51.408;7.208;2022-10-19T12:27:48;100706.81;;;21.37;48.60
4410;BME280;2218;51.408;7.208;2022-10-19T12:30:20;100692.75;;;21.36;48.46
4410;BME280;2218;51.408;7.208;2022-10-19T12:33:00;100694.44;;;21.37;48.62
4410;BME280;2218;51.408;7.208;2022-10-19T12:35:57;100680.38;;;21.37;48.54
4410;BME280;2218;51.408;7.208;2022-10-19T12:38:41;100672.44;;;21.37;48.24
4410;BME280;2218;51.408;7.208;2022-10-19T12:41:24;100681.22;;;21.37;48.47
4410;BME280;2218;51.408;7.208;2022-10-19T12:44:10;100667.16;;;21.37;48.69
4410;BME280;2218;51.408;7.208;2022-10-19T12:46:43;100668.97;;;21.36;48.75
4410;BME280;2218;51.408;7.208;2022-10-19T12:49:44;100668.97;;;21.36;48.47
4410;BME280;2218;51.408;7.208;2022-10-19T12:52:15;100661.88;;;21.37;48.54
4410;BME280;2218;51.408;7.208;2022-10-19T12:54:44;100666.31;;;21.36;48.77
4410;BME280;2218;51.408;7.208;2022-10-19T12:57:26;100655.72;;;21.36;48.70
4410;BME280;2218;51.408;7.208;2022-10-19T13:00:02;100659.34;;;21.35;48.49
4410;BME280;2218;51.408;7.208;2022-10-19T13:02:34;100646.22;;;21.34;48.62
4410;BME280;2218;51.408;7.208;2022-10-19T13:05:04;100639.13;;;21.34;48.71
4410;BME280;2218;51.408;7.208;2022-10-19T13:07:34;100641.78;;;21.34;48.73
4410;BME280;2218;51.408;7.208;2022-10-19T13:10:06;100636.50;;;21.34;49.17
4410;BME280;2218;51.408;7.208;2022-10-19T13:12:46;100636.50;;;21.34;48.71
4410;BME280;2218;51.408;7.208;2022-10-19T13:15:49;100620.63;;;21.34;48.68
4410;BME280;2218;51.408;7.208;2022-10-19T13:19:16;100619.78;;;21.34;48.81
4410;BME280;2218;51.408;7.208;2022-10-19T13:25:22;100605.59;;;21.35;48.80
4410;BME280;2218;51.408;7.208;2022-10-19T13:27:53;100596.59;;;21.37;48.64
4410;BME280;2218;51.408;7.208;2022-10-19T13:31:02;100591.44;;;21.36;48.29
4410;BME280;2218;51.408;7.208;2022-10-19T13:33:56;100596.72;;;21.36;48.59
4410;BME280;2218;51.408;7.208;2022-10-19T13:36:25;100593.97;;;21.37;48.83
4410;BME280;2218;51.408;7.208;2022-10-19T13:39:13;100593.97;;;21.37;48.45
4410;BME280;2218;51.408;7.208;2022-10-19T13:41:50;100592.09;;;21.39;48.24
4410;BME280;2218;51.408;7.208;2022-10-19T13:44:30;100590.19;;;21.41;48.08